Rossville, IL (60963)

7:36 AM CST on February 12, 2016 (GMT -0600)
Weinard Farms | | Change Station
CLOSE
Current Station
Personal Weather Station
Location: Rossville, IL
Elevation: 692 ft
Nearby Weather Stations

Elev 692 ft 40.39 °N, 87.57 °W | Updated 19 seconds ago

Overcast
Overcast
21.1 °F
Feels Like 15 °F
N
4.0
Wind Variable Wind from WSW
Gusts 8.0 mph

Today
High -- | Low -- °F
--% Chance of Precip.
Yesterday
High -- | Low -- °F
Precip. -- in
Pressure 30.18 in
Visibility 5.0 miles
Clouds Scattered Clouds 6500 ft
Overcast 7500 ft
Windchill 15 °F
Dew Point 18 °F
Humidity 86%
Rainfall 0.00 in
Snow Depth Not available.
6:48 AM 5:21 PM
Waxing Crescent, 20% visible
METAR KDNV 121315Z AUTO 25006KT 5SM -SN SCT065 OVC075 M07/M09 A3018 RMK AO2 T10671095
Pressure 30.18 in
Visibility 5.0 miles
Clouds Scattered Clouds 6500 ft
Overcast 7500 ft
Windchill 15 °F
Dew Point 18 °F
Humidity 86%
Rainfall 0.00 in
Snow Depth Not available.
6:48 AM 5:21 PM
Waxing Crescent, 20% visible
METAR KDNV 121315Z AUTO 25006KT 5SM -SN SCT065 OVC075 M07/M09 A3018 RMK AO2 T10671095

10-Day Weather Forecast

Almanac

Astronomy

Feb. 12, 2016 Rise Set
Actual Time
Civil Twilight
Nautical Twilight
Astronomical Twilight
Moon
Length of Visible Light
Length of Day
Tomorrow will be .
, % of the Moon is Illuminated

Today's Extremes

State Highs State Lows

Community

WunderPhotos

Upload Photos

1,892,312 photos uploaded!

WunderBlog® & News

Nearby

Air Quality

  Air Quality AQ Index Pollutant
Not available.

Snow Depth

Station Depth Elevation

Earthquake Activity

City Distance Mag. Time & Date
Minimum magnitude displayed is 2.5.

Coastal Water Temperatures

Place Temperature

Stations

Nearby Weather Stations

Station Location Temp. Windchill Dew Point Humidity Wind Precip. Elev Updated Type
                   

Watches & Warnings

There are currently no watches in effect.